createdAt,value
2018-09-29T00:00:30.477Z,0
2018-09-29T00:01:40.579Z,0
2018-09-29T00:02:50.697Z,0
2018-09-29T00:04:01.372Z,0
2018-09-29T00:05:10.921Z,0
2018-09-29T00:06:21.001Z,0
2018-09-29T00:07:31.101Z,0
2018-09-29T00:08:41.248Z,0
2018-09-29T00:09:51.338Z,0
2018-09-29T00:11:01.166Z,0
2018-09-29T00:12:11.261Z,0
2018-09-29T00:13:21.331Z,0
2018-09-29T00:14:31.404Z,0
2018-09-29T00:15:41.497Z,0
2018-09-29T00:16:51.307Z,0
2018-09-29T00:18:01.679Z,0
2018-09-29T00:19:11.854Z,0
2018-09-29T00:20:21.647Z,0
2018-09-29T00:21:31.502Z,0
2018-09-29T00:22:41.308Z,0
2018-09-29T00:23:51.126Z,0
2018-09-29T00:25:00.934Z,0
2018-09-29T00:26:11.007Z,0
2018-09-29T00:27:20.613Z,0
2018-09-29T00:28:30.432Z,0
2018-09-29T00:29:40.510Z,0
2018-09-29T00:30:50.584Z,0
2018-09-29T00:32:00.672Z,0
2018-09-29T00:33:10.758Z,0
2018-09-29T00:34:20.853Z,0
2018-09-29T00:35:30.918Z,0
2018-09-29T00:36:40.989Z,0
2018-09-29T00:37:50.831Z,0
2018-09-29T00:39:00.920Z,0
2018-09-29T00:40:11.004Z,0
2018-09-29T00:41:21.085Z,0
2018-09-29T00:42:31.168Z,0
2018-09-29T00:43:41.225Z,0
2018-09-29T00:44:51.405Z,0
2018-09-29T00:46:01.494Z,0
2018-09-29T00:47:11.049Z,0
2018-09-29T00:48:21.129Z,0
2018-09-29T00:49:31.269Z,0
2018-09-29T00:50:41.336Z,0
2018-09-29T00:51:51.518Z,0
2018-09-29T00:53:03.138Z,0
2018-09-29T00:54:13.213Z,0
2018-09-29T00:55:23.127Z,0
2018-09-29T00:56:33.200Z,0
2018-09-29T00:57:43.270Z,0
2018-09-29T00:58:53.096Z,0
2018-09-29T01:00:05.574Z,0
2018-09-29T01:01:15.642Z,0
2018-09-29T01:02:25.717Z,0
2018-09-29T01:03:35.804Z,0
2018-09-29T01:04:45.608Z,0
2018-09-29T01:05:55.416Z,0
2018-09-29T01:07:05.539Z,0
2018-09-29T01:08:15.675Z,0
2018-09-29T01:09:25.795Z,0
2018-09-29T01:10:35.586Z,0
2018-09-29T01:11:45.372Z,0
2018-09-29T01:12:55.153Z,0
2018-09-29T01:14:04.969Z,0
2018-09-29T01:15:15.024Z,0
2018-09-29T01:16:24.816Z,0
2018-09-29T01:17:34.868Z,0
2018-09-29T01:18:45.029Z,0
2018-09-29T01:19:55.147Z,0
2018-09-29T01:21:04.930Z,0
2018-09-29T01:22:14.741Z,0
2018-09-29T01:23:24.540Z,0
2018-09-29T01:24:34.450Z,0
2018-09-29T01:25:44.616Z,0
2018-09-29T01:26:54.691Z,0
2018-09-29T01:28:04.514Z,0
2018-09-29T01:29:14.579Z,0
2018-09-29T01:30:24.668Z,0
2018-09-29T01:31:34.782Z,0
2018-09-29T01:32:44.576Z,0
2018-09-29T01:33:54.639Z,0
2018-09-29T01:35:04.723Z,0
2018-09-29T01:36:14.809Z,0
2018-09-29T01:37:24.650Z,0
2018-09-29T01:38:34.721Z,0
2018-09-29T01:39:47.077Z,0
2018-09-29T01:41:03.357Z,0
2018-09-29T01:42:18.004Z,0
2018-09-29T01:43:31.628Z,0
2018-09-29T01:44:43.283Z,0
2018-09-29T01:45:53.675Z,0
2018-09-29T01:47:05.859Z,0
2018-09-29T01:48:15.771Z,0
2018-09-29T01:49:25.591Z,0
2018-09-29T01:50:35.663Z,0
2018-09-29T01:51:45.742Z,0
2018-09-29T01:52:55.837Z,0
2018-09-29T01:54:05.924Z,0
2018-09-29T01:55:16.053Z,0
2018-09-29T01:56:26.119Z,0
2018-09-29T01:57:36.206Z,0
2018-09-29T01:58:46.272Z,0
2018-09-29T01:59:56.359Z,0
2018-09-29T02:01:06.452Z,0
2018-09-29T02:02:16.519Z,0
2018-09-29T02:03:26.059Z,0
2018-09-29T02:04:35.653Z,0
2018-09-29T02:05:45.730Z,0
2018-09-29T02:06:55.528Z,0
2018-09-29T02:08:05.952Z,0
2018-09-29T02:09:16.219Z,0
2018-09-29T02:10:26.355Z,0
2018-09-29T02:11:36.416Z,0
2018-09-29T02:12:46.248Z,0
2018-09-29T02:13:56.344Z,0
2018-09-29T02:15:06.401Z,0
2018-09-29T02:16:15.967Z,0
2018-09-29T02:17:26.044Z,0
2018-09-29T02:18:36.126Z,0
2018-09-29T02:19:46.201Z,0
2018-09-29T02:20:56.268Z,0
2018-09-29T02:22:06.390Z,0
2018-09-29T02:23:16.462Z,0
2018-09-29T02:24:26.278Z,0
2018-09-29T02:25:36.337Z,0
2018-09-29T02:26:46.416Z,0
2018-09-29T02:27:56.485Z,0
2018-09-29T02:29:06.506Z,0
2018-09-29T02:30:16.581Z,0
2018-09-29T02:31:26.664Z,0
2018-09-29T02:32:36.496Z,0
2018-09-29T02:33:46.608Z,0
2018-09-29T02:34:56.680Z,0
2018-09-29T02:36:06.543Z,0
2018-09-29T02:37:16.610Z,0
2018-09-29T02:38:26.710Z,0
2018-09-29T02:39:36.906Z,0
2018-09-29T02:40:46.724Z,0
2018-09-29T02:41:56.803Z,0
2018-09-29T02:43:07.152Z,0
2018-09-29T02:44:17.243Z,0
2018-09-29T02:45:27.986Z,0
2018-09-29T02:46:38.062Z,0
2018-09-29T02:47:48.153Z,0
2018-09-29T02:48:57.737Z,0
2018-09-29T02:50:10.549Z,0
2018-09-29T02:51:20.646Z,0
2018-09-29T02:52:30.727Z,0
2018-09-29T02:53:40.806Z,0
2018-09-29T02:54:50.606Z,0
2018-09-29T02:56:00.674Z,0
2018-09-29T02:57:10.854Z,0
2018-09-29T02:58:20.690Z,0
2018-09-29T02:59:30.737Z,0
2018-09-29T03:00:40.828Z,0
2018-09-29T03:01:50.879Z,0
2018-09-29T03:34:36.885Z,0
2018-09-29T03:35:46.953Z,0
2018-09-29T03:36:57.014Z,0
2018-09-29T03:38:08.294Z,0
2018-09-29T03:39:18.349Z,0
2018-09-29T03:40:28.148Z,0
2018-09-29T03:41:38.216Z,0
2018-09-29T03:42:48.282Z,0
2018-09-29T03:43:58.345Z,0
2018-09-29T03:45:09.639Z,0
2018-09-29T03:46:19.525Z,0
2018-09-29T03:47:29.597Z,0
2018-09-29T03:48:39.678Z,0
2018-09-29T03:49:49.748Z,0
2018-09-29T03:50:59.797Z,0
2018-09-29T03:52:09.914Z,0
2018-09-29T03:53:19.976Z,0
2018-09-29T03:54:29.828Z,0
2018-09-29T03:55:39.884Z,0
2018-09-29T03:56:49.693Z,0
2018-09-29T03:57:59.763Z,0
2018-09-29T03:59:09.837Z,0
2018-09-29T04:00:19.640Z,0
2018-09-29T04:01:29.448Z,0
2018-09-29T04:02:39.557Z,0
2018-09-29T04:03:49.570Z,0
2018-09-29T04:04:59.637Z,0
2018-09-29T04:06:09.591Z,0
2018-09-29T04:07:19.393Z,0
2018-09-29T04:08:29.467Z,0
2018-09-29T04:09:39.287Z,0
2018-09-29T04:10:49.353Z,0
2018-09-29T04:11:59.431Z,0
2018-09-29T04:13:09.511Z,0
2018-09-29T04:14:19.325Z,0
2018-09-29T04:15:29.231Z,0
2018-09-29T04:16:39.323Z,0
2018-09-29T04:17:49.144Z,0
2018-09-29T04:18:58.956Z,0
2018-09-29T04:20:10.084Z,0
2018-09-29T04:21:20.173Z,0
2018-09-29T04:22:30.228Z,0
2018-09-29T04:23:40.280Z,4
2018-09-29T04:24:50.342Z,4
2018-09-29T04:26:00.140Z,0
2018-09-29T04:27:10.197Z,4
2018-09-29T04:28:20.308Z,4
2018-09-29T04:29:30.383Z,4
2018-09-29T04:30:40.453Z,4
2018-09-29T04:31:50.253Z,8
2018-09-29T04:33:00.485Z,8
2018-09-29T04:34:10.380Z,8
2018-09-29T04:35:20.451Z,12
2018-09-29T04:36:30.508Z,16
2018-09-29T04:37:40.308Z,20
2018-09-29T04:38:50.477Z,20
2018-09-29T04:40:00.561Z,24
2018-09-29T04:41:10.622Z,32
2018-09-29T04:42:20.709Z,40
2018-09-29T04:43:30.801Z,48
2018-09-29T04:44:40.971Z,60
2018-09-29T04:45:51.045Z,68
2018-09-29T04:47:03.164Z,80
2018-09-29T04:48:12.961Z,88
2018-09-29T04:49:23.270Z,100
2018-09-29T04:50:33.353Z,112
2018-09-29T04:51:43.412Z,124
2018-09-29T04:52:53.477Z,140
2018-09-29T04:54:03.737Z,156
2018-09-29T04:55:13.802Z,172
2018-09-29T04:56:23.625Z,192
2018-09-29T04:57:33.721Z,204
2018-09-29T04:58:43.523Z,228
2018-09-29T04:59:53.602Z,248
2018-09-29T05:01:03.690Z,276
2018-09-29T05:02:13.825Z,300
2018-09-29T05:03:23.905Z,336
2018-09-29T05:04:33.717Z,364
2018-09-29T05:05:43.764Z,400
2018-09-29T05:06:53.828Z,428
2018-09-29T05:08:03.901Z,456
2018-09-29T05:09:13.287Z,484
2018-09-29T05:10:22.816Z,512
2018-09-29T05:11:32.873Z,544
2018-09-29T05:12:42.932Z,568
2018-09-29T05:13:53.215Z,596
2018-09-29T05:15:03.092Z,620
2018-09-29T05:16:13.169Z,648
2018-09-29T05:17:23.244Z,676
2018-09-29T05:18:33.295Z,704
2018-09-29T05:19:43.093Z,736
2018-09-29T05:20:52.882Z,756
2018-09-29T05:22:04.703Z,784
2018-09-29T05:23:15.064Z,816
2018-09-29T05:24:25.322Z,840
2018-09-29T05:25:35.432Z,868
2018-09-29T05:26:45.241Z,896
2018-09-29T05:27:54.807Z,916
2018-09-29T05:29:05.487Z,944
2018-09-29T05:30:15.555Z,964
2018-09-29T05:31:25.472Z,988
2018-09-29T05:32:35.557Z,1016
2018-09-29T05:33:45.629Z,1040
2018-09-29T05:34:55.724Z,1068
2018-09-29T05:36:07.051Z,1092
2018-09-29T05:37:17.142Z,1120
2018-09-29T05:38:27.423Z,1144
2018-09-29T05:39:37.787Z,1172
2018-09-29T05:40:47.612Z,1200
2018-09-29T05:41:57.402Z,1224
2018-09-29T05:43:07.323Z,1252
2018-09-29T05:44:17.440Z,1280
2018-09-29T05:45:27.268Z,1308
2018-09-29T05:46:37.342Z,1336
2018-09-29T05:47:47.154Z,1360
2018-09-29T05:48:57.003Z,1384
2018-09-29T05:50:07.371Z,1412
2018-09-29T05:51:17.436Z,1440
2018-09-29T05:52:27.532Z,1468
2018-09-29T05:53:37.068Z,1488
2018-09-29T05:54:47.136Z,1512
2018-09-29T05:55:56.939Z,1532
2018-09-29T05:57:07.115Z,1552
2018-09-29T05:58:16.973Z,1572
2018-09-29T05:59:27.158Z,1588
2018-09-29T06:00:37.472Z,1616
2018-09-29T06:01:47.667Z,1632
2018-09-29T06:02:57.487Z,1656
2018-09-29T06:04:07.044Z,1672
2018-09-29T06:05:16.903Z,1692
2018-09-29T06:06:27.133Z,1716
2018-09-29T06:07:37.780Z,1728
2018-09-29T06:08:47.896Z,1752
2018-09-29T06:09:57.733Z,1772
2018-09-29T06:11:07.664Z,1796
2018-09-29T06:12:17.548Z,1816
2018-09-29T06:13:27.132Z,1840
2018-09-29T06:14:37.279Z,1864
2018-09-29T06:15:47.374Z,1876
2018-09-29T06:16:57.559Z,1900
2018-09-29T06:18:10.105Z,1936
2018-09-29T06:19:20.164Z,1948
2018-09-29T06:20:30.266Z,1992
2018-09-29T06:21:40.347Z,2024
2018-09-29T06:22:50.491Z,2068
2018-09-29T06:24:00.664Z,2100
2018-09-29T06:25:10.751Z,2136
2018-09-29T06:26:20.834Z,2176
2018-09-29T06:27:30.901Z,2204
2018-09-29T06:28:40.986Z,2228
2018-09-29T06:29:50.870Z,2260
2018-09-29T06:31:00.934Z,2292
2018-09-29T06:32:11.036Z,2316
2018-09-29T06:33:20.831Z,2348
2018-09-29T06:34:30.642Z,2380
2018-09-29T06:35:40.711Z,2404
2018-09-29T06:36:51.193Z,2436
2018-09-29T06:38:03.697Z,2476
2018-09-29T06:39:13.779Z,2504
2018-09-29T06:40:23.330Z,2536
2018-09-29T06:41:33.480Z,2560
2018-09-29T06:42:43.563Z,2596
2018-09-29T06:43:53.647Z,2616
2018-09-29T06:45:03.540Z,2644
2018-09-29T06:46:13.662Z,2680
2018-09-29T06:47:23.725Z,2700
2018-09-29T06:48:33.796Z,2716
2018-09-29T06:49:43.862Z,2724
2018-09-29T06:50:53.957Z,2728
2018-09-29T06:52:04.036Z,2704
2018-09-29T06:53:14.122Z,2692
2018-09-29T06:54:24.052Z,2688
2018-09-29T06:55:34.221Z,2688
2018-09-29T06:56:43.776Z,2708
2018-09-29T06:57:53.981Z,2716
2018-09-29T06:59:04.159Z,2712
2018-09-29T07:00:13.988Z,2728
2018-09-29T07:01:24.070Z,2744
2018-09-29T07:02:34.172Z,2768
2018-09-29T07:03:44.237Z,2796
2018-09-29T07:04:54.344Z,2824
2018-09-29T07:06:05.245Z,2852
2018-09-29T07:07:15.348Z,2880
2018-09-29T07:08:25.424Z,2896
2018-09-29T07:09:35.252Z,2924
2018-09-29T07:10:45.340Z,2932
2018-09-29T07:11:55.433Z,2944
2018-09-29T07:13:05.455Z,2908
2018-09-29T07:14:15.568Z,2912
2018-09-29T07:15:25.645Z,2816
2018-09-29T07:16:35.769Z,3008
2018-09-29T07:17:45.875Z,3032
2018-09-29T07:18:55.420Z,3064
2018-09-29T07:20:04.973Z,3048
2018-09-29T07:21:15.077Z,3112
2018-09-29T07:22:25.209Z,3136
2018-09-29T07:23:35.280Z,3152
2018-09-29T07:24:45.363Z,3176
2018-09-29T07:25:55.215Z,3184
2018-09-29T07:27:05.296Z,3140
2018-09-29T07:28:15.437Z,3140
2018-09-29T07:29:25.524Z,3184
2018-09-29T07:30:35.611Z,3132
2018-09-29T07:31:45.814Z,3316
2018-09-29T07:32:55.942Z,3340
2018-09-29T07:34:06.071Z,3348
2018-09-29T07:35:16.154Z,3384
2018-09-29T07:36:26.250Z,3412
2018-09-29T07:37:36.319Z,3432
2018-09-29T07:38:46.138Z,3448
2018-09-29T07:39:55.970Z,3468
2018-09-29T07:41:06.050Z,3428
2018-09-29T07:42:16.140Z,3516
2018-09-29T07:43:25.967Z,3544
2018-09-29T07:44:36.038Z,3564
2018-09-29T07:45:45.856Z,3588
2018-09-29T07:46:55.966Z,3616
2018-09-29T07:48:06.892Z,3644
2018-09-29T07:49:17.289Z,3664
2018-09-29T07:50:27.617Z,3688
2018-09-29T07:51:37.714Z,3732
2018-09-29T07:52:47.557Z,3740
2018-09-29T07:53:57.377Z,3756
2018-09-29T07:55:08.625Z,3772
2018-09-29T07:56:18.858Z,3804
2018-09-29T07:57:28.751Z,3836
2018-09-29T07:58:38.865Z,3852
2018-09-29T07:59:48.975Z,3872
2018-09-29T08:00:59.075Z,3888
2018-09-29T08:02:09.204Z,3904
2018-09-29T08:03:19.286Z,3948
2018-09-29T08:04:29.387Z,3988
2018-09-29T08:05:39.476Z,3976
2018-09-29T08:06:49.300Z,4012
2018-09-29T08:07:59.143Z,4008
2018-09-29T08:09:08.938Z,4016
2018-09-29T08:10:18.776Z,4072
2018-09-29T08:11:28.603Z,4088
2018-09-29T08:12:38.790Z,4108
2018-09-29T08:13:48.889Z,4128
2018-09-29T08:14:58.774Z,4140
2018-09-29T08:16:08.879Z,4160
2018-09-29T08:17:18.791Z,4176
2018-09-29T08:18:28.861Z,4176
2018-09-29T08:19:38.977Z,4184
2018-09-29T08:20:49.264Z,4208
2018-09-29T08:21:59.377Z,4248
2018-09-29T08:23:09.187Z,4176
2018-09-29T08:24:19.521Z,4344
2018-09-29T08:25:29.826Z,4344
2018-09-29T08:26:40.009Z,4336
2018-09-29T08:27:50.130Z,4348
2018-09-29T08:29:02.690Z,4372
2018-09-29T08:30:12.841Z,4388
2018-09-29T08:31:22.952Z,4412
2018-09-29T08:32:33.071Z,4444
2018-09-29T08:33:43.174Z,4444
2018-09-29T08:34:53.262Z,4464
2018-09-29T08:36:03.370Z,4512
2018-09-29T08:37:13.486Z,4492
2018-09-29T08:38:23.386Z,4520
2018-09-29T08:39:33.523Z,4540
2018-09-29T08:40:43.363Z,4564
2018-09-29T08:41:53.187Z,4588
2018-09-29T08:43:03.679Z,4600
2018-09-29T08:44:13.918Z,4652
2018-09-29T08:45:24.065Z,4652
2018-09-29T08:46:34.199Z,4596
2018-09-29T08:47:44.403Z,4676
2018-09-29T08:48:54.213Z,4696
2018-09-29T08:50:04.307Z,4668
2018-09-29T08:51:14.419Z,4644
2018-09-29T08:52:24.540Z,4740
2018-09-29T08:53:34.928Z,4756
2018-09-29T08:54:45.106Z,4436
2018-09-29T08:55:55.258Z,4840
2018-09-29T08:57:06.744Z,4856
2018-09-29T08:58:16.818Z,4856
2018-09-29T08:59:26.936Z,4872
2018-09-29T09:00:37.023Z,4864
2018-09-29T09:01:47.164Z,4892
2018-09-29T09:02:56.727Z,4824
2018-09-29T09:04:07.163Z,4796
2018-09-29T09:05:17.309Z,4888
2018-09-29T09:06:27.451Z,4892
2018-09-29T09:07:37.527Z,4936
2018-09-29T09:08:47.628Z,4928
2018-09-29T09:09:57.760Z,4996
2018-09-29T09:11:10.154Z,5020
2018-09-29T09:12:19.964Z,5036
2018-09-29T09:13:31.094Z,5060
2018-09-29T09:14:41.211Z,5048
2018-09-29T09:15:51.313Z,5052
2018-09-29T09:17:01.868Z,5048
2018-09-29T09:18:11.970Z,5116
2018-09-29T09:19:22.066Z,5064
2018-09-29T09:20:32.159Z,5056
2018-09-29T09:21:41.964Z,5124
2018-09-29T09:22:51.799Z,5184
2018-09-29T09:24:02.151Z,5152
2018-09-29T09:25:12.356Z,5156
2018-09-29T09:26:22.445Z,5180
2018-09-29T09:27:32.526Z,5204
2018-09-29T09:28:42.357Z,5196
2018-09-29T09:29:52.314Z,5220
2018-09-29T09:31:04.299Z,5260
2018-09-29T09:32:14.127Z,5252
2018-09-29T09:33:23.948Z,5272
2018-09-29T09:34:34.036Z,5252
2018-09-29T09:35:44.127Z,5276
2018-09-29T09:36:54.206Z,5240
2018-09-29T09:38:05.797Z,5272
2018-09-29T09:39:15.912Z,5312
2018-09-29T09:40:25.988Z,5280
2018-09-29T09:41:36.074Z,5332
2018-09-29T09:42:45.972Z,5300
2018-09-29T09:43:56.130Z,5292
2018-09-29T09:45:07.816Z,5344
2018-09-29T09:46:17.951Z,5336
2018-09-29T09:47:28.135Z,5372
2018-09-29T09:48:38.237Z,5356
2018-09-29T09:49:48.321Z,5368
2018-09-29T09:50:58.158Z,5360
2018-09-29T09:52:08.251Z,5368
2018-09-29T09:53:18.357Z,5348
2018-09-29T09:54:28.457Z,5352
2018-09-29T09:55:38.561Z,5380
2018-09-29T09:56:48.663Z,5408
2018-09-29T09:57:58.746Z,5452
2018-09-29T09:59:10.332Z,5432
2018-09-29T10:00:20.419Z,5448
2018-09-29T10:01:30.504Z,5436
2018-09-29T10:02:40.580Z,5416
2018-09-29T10:03:50.673Z,5448
2018-09-29T10:05:00.771Z,5452
2018-09-29T10:06:10.841Z,5444
2018-09-29T10:07:20.943Z,5468
2018-09-29T10:08:31.131Z,5452
2018-09-29T10:09:40.951Z,5436
2018-09-29T10:10:51.045Z,5492
2018-09-29T10:12:01.128Z,5548
2018-09-29T10:13:11.216Z,5552
2018-09-29T10:14:21.304Z,5552
2018-09-29T10:15:31.376Z,5584
2018-09-29T10:16:41.467Z,5632
2018-09-29T10:17:51.301Z,5608
2018-09-29T10:19:01.371Z,5560
2018-09-29T10:20:11.218Z,5548
2018-09-29T10:21:20.785Z,5532
2018-09-29T10:22:30.905Z,5548
2018-09-29T10:23:40.752Z,5548
2018-09-29T10:24:50.841Z,5552
2018-09-29T10:26:00.454Z,5536
2018-09-29T10:27:10.562Z,5608
2018-09-29T10:28:20.652Z,5576
2018-09-29T10:29:30.726Z,5596
2018-09-29T10:30:40.827Z,5584
2018-09-29T10:31:50.709Z,5576
2018-09-29T10:33:00.537Z,5588
2018-09-29T10:34:10.637Z,5576
2018-09-29T10:35:20.470Z,5588
2018-09-29T10:36:30.593Z,5580
2018-09-29T10:37:40.697Z,5576
2018-09-29T10:38:50.891Z,5588
2018-09-29T10:40:01.237Z,5576
2018-09-29T10:41:11.314Z,5572
2018-09-29T10:42:21.411Z,5588
2018-09-29T10:43:31.554Z,5620
2018-09-29T10:44:41.388Z,5604
2018-09-29T10:45:51.457Z,5612
2018-09-29T10:47:01.569Z,5612
2018-09-29T10:48:11.654Z,5636
2018-09-29T10:49:21.761Z,5640
2018-09-29T10:50:31.854Z,5672
2018-09-29T10:51:41.675Z,5668
2018-09-29T10:52:51.587Z,5664
2018-09-29T10:54:01.779Z,5660
2018-09-29T10:55:11.920Z,5672
2018-09-29T10:56:22.042Z,5656
2018-09-29T10:57:32.118Z,5648
2018-09-29T10:58:42.197Z,5692
2018-09-29T10:59:52.033Z,5724
2018-09-29T11:01:02.098Z,5760
2018-09-29T11:02:12.160Z,5764
2018-09-29T11:03:21.999Z,5776
2018-09-29T11:04:32.094Z,5772
2018-09-29T11:05:42.210Z,5780
2018-09-29T11:06:52.411Z,5752
2018-09-29T11:08:02.497Z,5756
2018-09-29T11:09:12.600Z,5692
2018-09-29T11:10:22.673Z,5768
2018-09-29T11:11:32.769Z,5756
2018-09-29T11:12:42.620Z,5800
2018-09-29T11:13:52.696Z,5828
2018-09-29T11:15:02.819Z,5796
2018-09-29T11:16:12.633Z,5844
2018-09-29T11:17:22.716Z,5844
2018-09-29T11:18:32.853Z,5952
2018-09-29T11:19:42.940Z,5984
2018-09-29T11:20:52.673Z,6012
2018-09-29T11:22:02.924Z,5948
2018-09-29T11:23:12.745Z,5988
2018-09-29T11:24:22.867Z,5952
2018-09-29T11:25:32.697Z,6024
2018-09-29T11:26:42.847Z,5980
2018-09-29T11:27:53.282Z,5928
2018-09-29T11:29:03.622Z,5920
2018-09-29T11:30:13.819Z,5924
2018-09-29T11:31:23.908Z,5952
2018-09-29T11:32:33.742Z,5924
2018-09-29T11:33:43.578Z,5936
2018-09-29T11:34:53.409Z,5964
2018-09-29T11:36:03.540Z,5960
2018-09-29T11:37:13.656Z,6012
2018-09-29T11:38:23.285Z,6024
2018-09-29T11:39:33.756Z,6048
2018-09-29T11:40:44.155Z,6056
2018-09-29T11:41:54.358Z,6056
2018-09-29T11:43:04.445Z,6060
2018-09-29T11:44:14.070Z,6048
2018-09-29T11:45:23.943Z,6068
2018-09-29T11:46:33.513Z,6104
2018-09-29T11:47:43.119Z,6120
2018-09-29T11:48:53.207Z,6124
2018-09-29T11:50:06.066Z,6132
2018-09-29T11:51:16.152Z,6152
2018-09-29T11:52:26.228Z,6156
2018-09-29T11:53:36.106Z,6192
2018-09-29T11:54:46.183Z,6224
2018-09-29T11:55:56.268Z,6260
2018-09-29T11:57:08.249Z,6280
2018-09-29T11:58:18.346Z,6304
2018-09-29T11:59:28.455Z,6304
2018-09-29T12:00:38.572Z,6340
2018-09-29T12:01:48.535Z,6360
2018-09-29T12:02:58.788Z,6388
2018-09-29T12:04:08.906Z,6388
2018-09-29T12:05:19.110Z,6408
2018-09-29T12:06:29.612Z,6424
2018-09-29T12:07:39.561Z,6436
2018-09-29T12:08:49.941Z,6416
2018-09-29T12:10:00.031Z,6444
2018-09-29T12:11:10.394Z,6472
2018-09-29T12:12:20.502Z,6476
2018-09-29T12:13:30.601Z,6452
2018-09-29T12:14:40.708Z,6476
2018-09-29T12:15:50.799Z,6456
2018-09-29T12:17:03.353Z,6444
2018-09-29T12:18:13.440Z,6412
2018-09-29T12:19:23.529Z,6428
2018-09-29T12:20:33.382Z,6416
2018-09-29T12:21:43.448Z,6388
2018-09-29T12:22:53.277Z,6400
2018-09-29T12:24:03.363Z,6384
2018-09-29T12:25:13.176Z,6360
2018-09-29T12:26:23.276Z,6364
2018-09-29T12:27:33.363Z,6308
2018-09-29T12:28:43.546Z,6256
2018-09-29T12:29:54.051Z,6228
2018-09-29T12:31:04.315Z,6180
2018-09-29T12:32:14.180Z,6124
2018-09-29T12:33:24.289Z,6128
2018-09-29T12:34:34.366Z,6036
2018-09-29T12:35:44.170Z,6000
2018-09-29T12:36:54.227Z,5952
2018-09-29T12:38:05.395Z,5912
2018-09-29T12:39:15.467Z,5872
2018-09-29T12:40:25.599Z,5856
2018-09-29T12:41:35.157Z,5816
2018-09-29T12:42:45.196Z,5836
2018-09-29T12:43:54.493Z,5756
2018-09-29T12:45:04.680Z,5708
2018-09-29T12:46:14.294Z,5680
2018-09-29T12:47:23.922Z,5652
2018-09-29T12:48:34.081Z,5660
2018-09-29T12:49:43.923Z,5632
2018-09-29T12:50:53.996Z,5636
2018-09-29T12:52:03.517Z,5612
2018-09-29T12:53:13.465Z,5588
2018-09-29T12:54:23.020Z,5576
2018-09-29T12:55:33.116Z,5544
2018-09-29T12:56:42.673Z,5520
2018-09-29T12:57:52.551Z,5508
2018-09-29T12:59:04.045Z,5492
2018-09-29T13:00:13.947Z,5464
2018-09-29T13:01:23.516Z,5432
2018-09-29T13:02:33.594Z,5432
2018-09-29T13:03:43.703Z,5420
2018-09-29T13:04:53.517Z,5448
2018-09-29T13:06:03.610Z,5416
2018-09-29T13:07:13.747Z,5392
2018-09-29T13:08:23.818Z,5380
2018-09-29T13:09:33.901Z,5352
2018-09-29T13:10:43.784Z,5324
2018-09-29T13:11:53.865Z,5324
2018-09-29T13:13:03.929Z,5312
2018-09-29T13:14:14.023Z,5332
2018-09-29T13:15:23.851Z,5308
2018-09-29T13:16:33.943Z,5288
2018-09-29T13:17:44.081Z,5292
2018-09-29T13:18:54.152Z,5236
2018-09-29T13:20:03.966Z,5204
2018-09-29T13:21:14.051Z,5172
2018-09-29T13:22:24.225Z,5160
2018-09-29T13:23:34.047Z,5132
2018-09-29T13:24:44.121Z,5104
2018-09-29T13:25:54.208Z,5104
2018-09-29T13:27:03.751Z,5140
2018-09-29T13:28:13.880Z,5084
2018-09-29T13:29:24.031Z,5080
2018-09-29T13:30:34.217Z,5068
2018-09-29T13:31:44.057Z,5032
2018-09-29T13:32:54.181Z,5000
2018-09-29T13:34:04.051Z,4980
2018-09-29T13:35:13.870Z,4964
2018-09-29T13:36:23.949Z,4932
2018-09-29T13:37:34.014Z,4924
2018-09-29T13:38:44.105Z,4912
2018-09-29T13:39:54.188Z,4876
2018-09-29T13:41:04.542Z,4872
2018-09-29T13:42:14.645Z,4840
2018-09-29T13:43:24.733Z,4832
2018-09-29T13:44:34.573Z,4816
2018-09-29T13:45:44.788Z,4800
2018-09-29T13:46:54.976Z,4780
2018-09-29T13:48:07.821Z,4748
2018-09-29T13:49:17.891Z,4736
2018-09-29T13:50:27.710Z,4704
2018-09-29T13:51:37.873Z,4672
2018-09-29T13:52:47.962Z,4656
2018-09-29T13:53:58.067Z,4648
2018-09-29T13:55:08.161Z,4616
2018-09-29T13:56:18.246Z,4564
2018-09-29T13:57:28.582Z,4584
2018-09-29T13:58:38.838Z,4548
2018-09-29T13:59:48.931Z,4512
2018-09-29T14:00:59.018Z,4484
2018-09-29T14:02:09.206Z,4444
2018-09-29T14:03:19.520Z,4428
2018-09-29T14:04:29.672Z,4388
2018-09-29T14:05:39.776Z,4352
2018-09-29T14:06:49.597Z,4324
2018-09-29T14:07:59.690Z,4284
2018-09-29T14:09:10.508Z,4244
2018-09-29T14:10:20.058Z,4220
2018-09-29T14:11:30.132Z,4204
2018-09-29T14:12:40.221Z,4184
2018-09-29T14:13:50.336Z,4096
2018-09-29T14:15:00.465Z,4128
2018-09-29T14:16:10.580Z,4104
2018-09-29T14:17:20.671Z,4044
2018-09-29T14:18:30.784Z,4008
2018-09-29T14:19:40.890Z,3956
2018-09-29T14:20:51.028Z,3980
2018-09-29T14:22:01.147Z,3960
2018-09-29T14:23:11.285Z,3916
2018-09-29T14:24:21.268Z,3920
2018-09-29T14:25:31.077Z,3896
2018-09-29T14:26:41.171Z,3876
2018-09-29T14:27:51.392Z,3836
2018-09-29T14:29:01.449Z,3820
2018-09-29T14:30:11.760Z,3816
2018-09-29T14:31:21.671Z,3792
2018-09-29T14:32:31.563Z,3760
2018-09-29T14:33:41.637Z,3736
2018-09-29T14:34:51.733Z,3712
2018-09-29T14:36:01.823Z,3696
2018-09-29T14:37:11.883Z,3664
2018-09-29T14:38:21.786Z,3636
2018-09-29T14:39:31.629Z,3620
2018-09-29T14:40:41.797Z,3588
2018-09-29T14:41:52.110Z,3556
2018-09-29T14:43:02.274Z,3532
2018-09-29T14:44:12.897Z,3512
2018-09-29T14:45:23.438Z,3472
2018-09-29T14:46:33.545Z,3432
2018-09-29T14:47:44.829Z,3404
2018-09-29T14:48:56.135Z,3360
2018-09-29T14:50:07.521Z,3328
2018-09-29T14:51:33.240Z,3268
2018-09-29T14:52:45.554Z,3228
2018-09-29T14:53:57.942Z,3180
2018-09-29T14:55:17.980Z,3128
2018-09-29T14:56:29.987Z,3088
2018-09-29T14:57:39.814Z,3048
2018-09-29T14:58:49.689Z,3016
2018-09-29T14:59:59.787Z,2984
2018-09-29T15:01:10.187Z,2936
2018-09-29T15:02:20.266Z,2904
2018-09-29T15:03:30.335Z,2872
2018-09-29T15:04:39.908Z,2840
2018-09-29T15:05:50.041Z,2808
2018-09-29T15:07:01.953Z,2776
2018-09-29T15:08:12.070Z,2732
2018-09-29T15:09:22.152Z,2696
2018-09-29T15:10:32.042Z,2660
2018-09-29T15:11:42.104Z,2620
2018-09-29T15:12:52.176Z,2592
2018-09-29T15:14:02.274Z,2552
2018-09-29T15:15:12.364Z,2524
2018-09-29T15:16:22.455Z,2484
2018-09-29T15:17:32.009Z,2444
2018-09-29T15:18:42.146Z,2396
2018-09-29T15:19:52.237Z,2356
2018-09-29T15:21:01.822Z,2312
2018-09-29T15:22:11.905Z,2284
2018-09-29T15:23:21.998Z,2244
2018-09-29T15:24:32.162Z,2204
2018-09-29T15:25:42.263Z,2176
2018-09-29T15:26:52.372Z,2152
2018-09-29T15:28:03.258Z,2128
2018-09-29T15:29:13.098Z,2092
2018-09-29T15:30:23.192Z,2064
2018-09-29T15:31:33.281Z,2024
2018-09-29T15:32:43.381Z,1988
2018-09-29T15:33:53.462Z,1952
2018-09-29T15:35:03.560Z,1912
2018-09-29T15:36:13.653Z,1864
2018-09-29T15:37:23.491Z,1820
2018-09-29T15:38:33.376Z,1784
2018-09-29T15:39:43.480Z,1748
2018-09-29T15:40:53.556Z,1720
2018-09-29T15:42:04.741Z,1676
2018-09-29T15:43:14.848Z,1632
2018-09-29T15:44:24.674Z,1580
2018-09-29T15:45:34.761Z,1540
2018-09-29T15:46:44.859Z,1504
2018-09-29T15:47:55.186Z,1464
2018-09-29T15:49:05.009Z,1432
2018-09-29T15:50:15.109Z,1392
2018-09-29T15:51:25.202Z,1348
2018-09-29T15:52:35.046Z,1304
2018-09-29T15:53:44.926Z,1264
2018-09-29T15:54:55.023Z,1220
2018-09-29T15:56:05.167Z,1180
2018-09-29T15:57:15.263Z,1144
2018-09-29T15:58:25.350Z,1100
2018-09-29T15:59:35.547Z,1060
2018-09-29T16:00:45.630Z,1012
2018-09-29T16:01:55.433Z,976
2018-09-29T16:03:04.995Z,928
2018-09-29T16:04:15.131Z,896
2018-09-29T16:05:24.713Z,856
2018-09-29T16:06:34.563Z,808
2018-09-29T16:07:44.428Z,776
2018-09-29T16:08:54.299Z,736
2018-09-29T16:10:05.899Z,704
2018-09-29T16:11:15.974Z,676
2018-09-29T16:12:26.078Z,644
2018-09-29T16:13:35.914Z,616
2018-09-29T16:14:46.233Z,584
2018-09-29T16:15:56.327Z,560
2018-09-29T16:17:07.376Z,528
2018-09-29T16:18:16.922Z,500
2018-09-29T16:19:27.046Z,476
2018-09-29T16:20:37.145Z,444
2018-09-29T16:21:47.584Z,416
2018-09-29T16:22:57.838Z,392
2018-09-29T16:24:10.480Z,364
2018-09-29T16:25:20.599Z,336
2018-09-29T16:26:30.681Z,312
2018-09-29T16:27:40.767Z,288
2018-09-29T16:28:50.580Z,268
2018-09-29T16:30:03.515Z,248
2018-09-29T16:31:13.661Z,224
2018-09-29T16:32:23.744Z,200
2018-09-29T16:33:33.312Z,184